Time;durP1;ratioP1;P1;durP2;ratioP2;P2;SDS_P1;SDS_P2;PMS_P1;PMS_P2;Temp;Humidity;BMP_temperature;BMP_pressure;BME280_temperature;BME280_humidity;BME280_pressure;Samples;Min_cycle;Max_cycle;Signal;HPM_P1;HPM_P2
2020/12/21 00:02:25;;;;;;;28.27;21.50;;;;;;;-0.18;100.00;96713.97;1074732;23;20573;-70
2020/12/21 00:02:56;;;;;;;28.00;22.17;;;;;;;-0.14;100.00;96728.50;1031552;28;20046;-71
2020/12/21 00:03:27;;;;;;;28.92;22.13;;;;;;;-0.13;100.00;96725.06;1027952;28;20027;-72
2020/12/21 00:03:58;;;;;;;28.48;22.45;;;;;;;-0.11;100.00;96723.31;1020086;29;20539;-72
2020/12/21 00:04:28;;;;;;;27.15;21.75;;;;;;;-0.09;100.00;96725.88;1028378;28;20019;-71
2020/12/21 00:04:59;;;;;;;28.90;24.35;;;;;;;-0.06;100.00;96715.50;1028789;28;20266;-71
2020/12/21 00:05:30;;;;;;;29.27;24.30;;;;;;;0.01;100.00;96723.97;1020200;29;20431;-71
2020/12/21 00:06:01;;;;;;;27.25;22.40;;;;;;;-0.02;100.00;96720.59;1018191;29;20026;-71
2020/12/21 00:06:32;;;;;;;28.35;22.40;;;;;;;-0.07;100.00;96718.97;1025856;28;20804;-71
2020/12/21 00:07:03;;;;;;;27.40;22.48;;;;;;;-0.13;100.00;96719.91;1020301;29;20168;-71
2020/12/21 00:07:34;;;;;;;26.33;21.85;;;;;;;-0.05;100.00;96717.19;1020290;29;20050;-71
2020/12/21 00:08:04;;;;;;;26.33;22.20;;;;;;;-0.02;100.00;96714.56;1028328;28;20015;-71
2020/12/21 00:08:35;;;;;;;24.40;20.90;;;;;;;0.04;100.00;96719.63;1028420;28;20045;-71
2020/12/21 00:09:07;;;;;;;25.58;20.52;;;;;;;0.04;100.00;96716.19;1020349;29;20082;-71
2020/12/21 00:09:38;;;;;;;26.45;21.30;;;;;;;-0.04;100.00;96716.31;1024303;29;20035;-71
2020/12/21 00:10:09;;;;;;;28.08;22.00;;;;;;;-0.04;100.00;96721.47;1024551;29;20318;-71
2020/12/21 00:10:39;;;;;;;28.27;22.95;;;;;;;-0.12;100.00;96719.00;1020623;29;20019;-71
2020/12/21 00:11:10;;;;;;;27.65;21.67;;;;;;;-0.17;100.00;96731.09;1024257;29;20019;-71
2020/12/21 00:11:41;;;;;;;27.20;21.33;;;;;;;-0.14;100.00;96727.66;1020232;29;20026;-71
2020/12/21 00:12:12;;;;;;;25.83;20.55;;;;;;;-0.14;100.00;96732.81;1024285;29;20024;-71
2020/12/21 00:12:43;;;;;;;27.60;21.75;;;;;;;-0.15;100.00;96729.38;1028116;28;20022;-71
2020/12/21 00:13:14;;;;;;;29.00;22.67;;;;;;;-0.10;100.00;96729.31;1028060;28;20019;-71
2020/12/21 00:13:45;;;;;;;24.73;20.17;;;;;;;-0.07;100.00;96726.69;1027893;28;20262;-72
2020/12/21 00:14:16;;;;;;;26.58;20.85;;;;;;;-0.01;100.00;96718.84;1016292;29;20259;-72
2020/12/21 00:14:46;;;;;;;23.73;19.70;;;;;;;0.01;100.00;96719.66;1024135;29;20051;-72
2020/12/21 00:15:17;;;;;;;24.23;19.30;;;;;;;-0.01;100.00;96731.72;1019974;29;20016;-71
2020/12/21 00:15:48;;;;;;;22.25;18.98;;;;;;;-0.04;100.00;96731.78;1019888;29;20015;-72
2020/12/21 00:16:19;;;;;;;23.77;19.35;;;;;;;-0.06;100.00;96726.63;1020069;29;20051;-71
2020/12/21 00:16:51;;;;;;;25.65;19.95;;;;;;;-0.14;100.00;96731.06;1023948;29;20019;-72
2020/12/21 00:17:22;;;;;;;25.92;21.98;;;;;;;-0.10;100.00;96726.72;1024000;29;20012;-72
2020/12/21 00:17:53;;;;;;;26.35;20.15;;;;;;;-0.11;100.00;96733.59;1027728;28;20785;-73
2020/12/21 00:18:24;;;;;;;26.65;21.98;;;;;;;-0.07;100.00;96734.41;1027971;28;20019;-72
2020/12/21 00:18:55;;;;;;;26.15;21.75;;;;;;;-0.02;100.00;96738.63;1027946;28;20019;-71
2020/12/21 00:19:26;;;;;;;26.95;20.88;;;;;;;-0.06;100.00;96743.81;1027990;28;20023;-71
2020/12/21 00:19:56;;;;;;;25.48;20.52;;;;;;;-0.06;100.00;96736.94;1023770;28;20024;-71
2020/12/21 00:20:27;;;;;;;27.38;22.20;;;;;;;-0.04;100.00;96742.06;1027922;28;20062;-72
2020/12/21 00:20:58;;;;;;;24.40;21.00;;;;;;;-0.12;100.00;96733.63;1024054;28;20030;-74
2020/12/21 00:21:29;;;;;;;27.92;22.13;;;;;;;-0.03;100.00;96742.06;1032024;28;20081;-72
2020/12/21 00:22:00;;;;;;;25.92;21.42;;;;;;;-0.07;100.00;96742.13;1031954;28;20394;-72
2020/12/21 00:22:31;;;;;;;26.65;21.80;;;;;;;-0.09;100.00;96737.00;1023777;28;20037;-72
2020/12/21 00:23:02;;;;;;;27.55;21.75;;;;;;;-0.10;100.00;96732.72;1028042;28;20035;-72
2020/12/21 00:23:34;;;;;;;26.85;22.63;;;;;;;-0.06;100.00;96744.66;1016480;28;20075;-71
2020/12/21 00:24:05;;;;;;;26.15;21.25;;;;;;;0.01;100.00;96739.44;1019710;29;20318;-72
2020/12/21 00:24:35;;;;;;;27.27;22.52;;;;;;;-0.04;100.00;96730.06;1024001;29;20380;-71
2020/12/21 00:25:06;;;;;;;24.27;20.67;;;;;;;0.05;100.00;96741.09;1023985;28;20675;-72
2020/12/21 00:25:37;;;;;;;26.08;22.10;;;;;;;-0.03;100.00;96743.78;1020112;29;20022;-72
2020/12/21 00:26:08;;;;;;;25.58;22.02;;;;;;;-0.01;100.00;96739.47;1023787;29;20027;-72
2020/12/21 00:26:42;;;;;;;25.55;21.38;;;;;;;-0.03;100.00;96741.22;1020015;29;20047;-71
2020/12/21 00:27:13;;;;;;;26.15;21.45;;;;;;;-0.02;100.00;96738.63;1023976;29;20031;-72
2020/12/21 00:27:44;;;;;;;23.30;19.80;;;;;;;0.06;100.00;96743.66;1031970;28;20642;-72
2020/12/21 00:28:15;;;;;;;25.27;20.77;;;;;;;0.02;100.00;96741.13;1019726;28;20080;-73
2020/12/21 00:28:46;;;;;;;23.83;20.13;;;;;;;-0.08;100.00;96736.13;1016042;29;20103;-71
2020/12/21 00:29:17;;;;;;;27.25;21.33;;;;;;;-0.08;100.00;96741.25;1020160;29;20199;-71
2020/12/21 00:29:48;;;;;;;25.10;21.10;;;;;;;0.01;100.00;96744.59;1019972;29;20107;-71
2020/12/21 00:30:19;;;;;;;26.33;21.45;;;;;;;-0.07;100.00;96739.56;1020326;29;20308;-72
2020/12/21 00:30:49;;;;;;;25.70;22.20;;;;;;;-0.05;100.00;96742.97;1020339;29;20431;-72
2020/12/21 00:31:23;;;;;;;25.63;21.40;;;;;;;-0.09;100.00;96738.75;1016357;29;20063;-72
2020/12/21 00:31:55;;;;;;;24.95;20.48;;;;;;;-0.04;100.00;96742.94;1020304;29;20102;-72
2020/12/21 00:32:26;;;;;;;27.42;21.35;;;;;;;-0.01;100.00;96737.72;1020150;29;20285;-72
2020/12/21 00:32:57;;;;;;;28.60;22.17;;;;;;;0.01;100.00;96739.44;1016260;29;20275;-73
2020/12/21 00:33:30;;;;;;;26.52;21.92;;;;;;;-0.06;100.00;96729.22;1024250;29;20031;-72
2020/12/21 00:34:03;;;;;;;28.17;22.17;;;;;;;-0.08;100.00;96738.69;1024346;28;20267;-72
2020/12/21 00:34:34;;;;;;;25.05;21.00;;;;;;;-0.08;100.00;96735.28;1023801;29;20839;-72
2020/12/21 00:35:04;;;;;;;24.75;20.50;;;;;;;-0.04;100.00;96735.22;1016273;29;20338;-72
2020/12/21 00:35:35;;;;;;;28.75;22.83;;;;;;;0.01;100.00;96734.28;1024079;29;20031;-72
2020/12/21 00:36:06;;;;;;;25.88;22.17;;;;;;;0.06;100.00;96732.50;1028274;28;20019;-71
2020/12/21 00:36:38;;;;;;;25.98;20.67;;;;;;;0.00;100.00;96736.03;1031858;28;20273;-72
2020/12/21 00:37:09;;;;;;;26.83;21.85;;;;;;;0.05;100.00;96730.78;1027889;28;20022;-72
2020/12/21 00:37:40;;;;;;;25.73;21.23;;;;;;;-0.02;100.00;96732.59;1024333;29;20267;-72
2020/12/21 00:38:11;;;;;;;26.45;22.75;;;;;;;-0.03;100.00;96731.75;1016225;29;20024;-72
2020/12/21 00:38:42;;;;;;;27.65;23.00;;;;;;;0.02;100.00;96739.41;1020120;29;20750;-71
2020/12/21 00:39:13;;;;;;;30.38;25.08;;;;;;;0.04;100.00;96731.63;1020278;29;20028;-72
2020/12/21 00:39:44;;;;;;;27.20;21.65;;;;;;;0.02;100.00;96723.97;1028221;28;20522;-72
2020/12/21 00:40:15;;;;;;;26.73;21.60;;;;;;;0.01;100.00;96723.97;1020043;29;20464;-71
2020/12/21 00:40:45;;;;;;;24.13;21.40;;;;;;;0.12;100.00;96727.22;1023971;29;20065;-71
2020/12/21 00:41:18;;;;;;;24.45;20.67;;;;;;;0.14;100.00;96720.31;1024178;29;20070;-71
2020/12/21 00:41:48;;;;;;;26.42;21.73;;;;;;;0.20;100.00;96727.94;1020212;29;20127;-71
2020/12/21 00:42:19;;;;;;;24.70;21.92;;;;;;;0.18;100.00;96738.28;1027994;28;20263;-72
2020/12/21 00:42:50;;;;;;;25.30;21.05;;;;;;;0.10;100.00;96731.56;1023831;28;20040;-71
2020/12/21 00:43:21;;;;;;;25.15;21.02;;;;;;;0.07;100.00;96731.59;1020129;29;20095;-71
2020/12/21 00:43:52;;;;;;;26.05;21.63;;;;;;;0.06;100.00;96735.91;1016101;29;20693;-71
2020/12/21 00:44:22;;;;;;;25.77;21.67;;;;;;;0.08;100.00;96736.75;1019947;29;20036;-70
2020/12/21 00:44:53;;;;;;;26.67;21.17;;;;;;;0.04;100.00;96736.78;1019700;29;20123;-71
2020/12/21 00:45:24;;;;;;;27.02;23.15;;;;;;;0.05;100.00;96734.19;1023880;28;20027;-72
2020/12/21 00:45:55;;;;;;;27.45;21.38;;;;;;;0.03;100.00;96727.38;1031811;28;20023;-71
2020/12/21 00:46:27;;;;;;;26.65;22.33;;;;;;;0.03;100.00;96742.84;1027682;28;20653;-71
2020/12/21 00:46:58;;;;;;;27.15;22.88;;;;;;;0.02;100.00;96736.84;1031567;28;20030;-71
2020/12/21 00:47:32;;;;;;;25.23;20.23;;;;;;;0.07;100.00;96735.03;1023723;29;20342;-71
2020/12/21 00:48:03;;;;;;;27.17;22.05;;;;;;;-0.01;100.00;96731.72;1027819;28;20258;-71
2020/12/21 00:48:34;;;;;;;30.65;24.80;;;;;;;0.03;100.00;96735.94;1027826;28;20270;-71
2020/12/21 00:49:04;;;;;;;27.65;22.20;;;;;;;0.07;100.00;96729.88;1027591;28;20027;-71
2020/12/21 00:49:35;;;;;;;27.33;23.67;;;;;;;0.06;100.00;96729.91;1027715;28;20270;-71
2020/12/21 00:50:06;;;;;;;25.08;21.70;;;;;;;0.12;100.00;96737.53;1023740;28;20534;-71
2020/12/21 00:50:36;;;;;;;25.88;21.85;;;;;;;0.13;100.00;96741.81;1020026;29;20036;-71
2020/12/21 00:51:08;;;;;;;26.92;22.83;;;;;;;0.10;100.00;96737.56;1019883;29;20028;-71
2020/12/21 00:51:39;;;;;;;28.00;22.45;;;;;;;0.10;100.00;96741.88;1019958;29;20023;-71
2020/12/21 00:52:09;;;;;;;29.17;24.13;;;;;;;0.12;100.00;96743.53;1019725;28;20363;-71
2020/12/21 00:52:40;;;;;;;26.20;21.25;;;;;;;0.17;100.00;96739.16;1015948;29;20039;-71
2020/12/21 00:53:11;;;;;;;23.13;19.90;;;;;;;0.25;100.00;96745.94;1023668;29;20475;-71
2020/12/21 00:53:43;;;;;;;25.10;20.05;;;;;;;0.23;100.00;96751.09;1023801;28;20027;-71
2020/12/21 00:54:14;;;;;;;22.08;18.80;;;;;;;0.19;100.00;96742.56;1023758;29;20086;-71
2020/12/21 00:54:45;;;;;;;26.05;21.10;;;;;;;0.18;100.00;96746.00;1023778;28;20341;-71
2020/12/21 00:55:16;;;;;;;23.58;20.77;;;;;;;0.22;100.00;96745.97;1019767;29;20114;-71
2020/12/21 00:55:46;;;;;;;24.25;19.92;;;;;;;0.23;100.00;96745.09;1019740;29;20054;-71
2020/12/21 00:56:18;;;;;;;24.65;20.85;;;;;;;0.19;100.00;96742.56;1019944;29;20198;-71
2020/12/21 00:56:49;;;;;;;25.90;21.55;;;;;;;0.21;100.00;96746.81;1027722;28;20101;-71
2020/12/21 00:57:20;;;;;;;22.10;19.45;;;;;;;0.17;100.00;96746.91;1023585;28;20270;-71
2020/12/21 00:57:50;;;;;;;24.45;20.42;;;;;;;0.11;100.00;96746.13;1023750;28;20086;-71
2020/12/21 00:58:21;;;;;;;25.65;21.55;;;;;;;0.05;100.00;96747.09;1023860;28;20027;-71
2020/12/21 00:58:52;;;;;;;23.70;19.98;;;;;;;0.09;100.00;96747.88;1027858;28;20053;-71
2020/12/21 00:59:23;;;;;;;25.27;21.80;;;;;;;0.10;100.00;96740.13;1027600;28;20027;-71
2020/12/21 00:59:54;;;;;;;24.60;21.90;;;;;;;0.07;100.00;96736.75;1027791;28;20431;-71
2020/12/21 01:00:25;;;;;;;24.35;21.23;;;;;;;0.14;100.00;96734.06;1023798;28;20031;-71
2020/12/21 01:01:01;;;;;;;23.70;20.30;;;;;;;0.17;100.00;96740.91;1019757;29;20267;-71
2020/12/21 01:01:31;;;;;;;26.63;21.45;;;;;;;0.17;100.00;96741.75;1019732;28;20083;-72
2020/12/21 01:02:05;;;;;;;28.27;23.10;;;;;;;0.13;100.00;96744.38;1027613;28;20317;-72
2020/12/21 01:02:38;;;;;;;24.90;20.52;;;;;;;0.17;100.00;96743.47;1027322;28;20102;-72
2020/12/21 01:03:08;;;;;;;26.30;21.23;;;;;;;0.16;100.00;96741.75;1023659;29;20386;-72
2020/12/21 01:03:39;;;;;;;27.33;21.02;;;;;;;0.17;100.00;96746.06;1023717;29;20263;-72
2020/12/21 01:04:10;;;;;;;27.10;23.35;;;;;;;0.23;100.00;96752.84;1019773;29;20051;-72
2020/12/21 01:04:41;;;;;;;26.85;22.80;;;;;;;0.24;100.00;96747.63;1027821;28;20027;-72
2020/12/21 01:05:11;;;;;;;27.15;23.02;;;;;;;0.18;100.00;96743.44;1023731;29;20034;-72
2020/12/21 01:05:42;;;;;;;26.00;21.27;;;;;;;0.20;100.00;96753.72;1023718;28;20045;-72
2020/12/21 01:06:13;;;;;;;26.05;21.58;;;;;;;0.22;100.00;96756.28;1019840;29;20031;-72
2020/12/21 01:06:44;;;;;;;26.35;23.00;;;;;;;0.18;100.00;96752.88;1023730;29;20053;-72
2020/12/21 01:07:15;;;;;;;26.88;22.42;;;;;;;0.21;100.00;96749.41;1019862;29;20353;-72
2020/12/21 01:07:46;;;;;;;28.52;22.73;;;;;;;0.25;100.00;96751.91;1027606;28;20673;-72
2020/12/21 01:08:17;;;;;;;26.77;21.40;;;;;;;0.24;100.00;96757.09;1027677;28;20031;-72
2020/12/21 01:08:48;;;;;;;29.23;22.63;;;;;;;0.18;100.00;96756.31;1023764;29;20460;-71
2020/12/21 01:09:18;;;;;;;25.67;21.83;;;;;;;0.15;100.00;96751.22;1024145;29;20067;-70
2020/12/21 01:09:49;;;;;;;26.77;23.00;;;;;;;0.17;100.00;96759.78;1024449;29;20023;-70
2020/12/21 01:10:20;;;;;;;26.83;22.10;;;;;;;0.25;100.00;96754.50;1024636;29;20031;-71
2020/12/21 01:10:51;;;;;;;25.75;21.73;;;;;;;0.24;100.00;96754.50;1024612;28;20118;-70
2020/12/21 01:11:22;;;;;;;26.27;21.98;;;;;;;0.26;100.00;96757.91;1028515;28;20036;-70
2020/12/21 01:11:53;;;;;;;26.58;21.75;;;;;;;0.27;100.00;96752.75;1032435;28;20026;-70
2020/12/21 01:12:24;;;;;;;24.88;21.45;;;;;;;0.27;100.00;96754.47;1032463;28;20280;-70
2020/12/21 01:12:55;;;;;;;26.67;22.58;;;;;;;0.22;100.00;96749.38;1028346;28;20679;-70
2020/12/21 01:13:25;;;;;;;27.13;21.73;;;;;;;0.17;100.00;96753.78;1020595;29;20464;-70
2020/12/21 01:13:57;;;;;;;24.95;20.92;;;;;;;0.19;100.00;96757.19;1024534;29;20035;-70
2020/12/21 01:14:28;;;;;;;26.77;23.05;;;;;;;0.18;100.00;96753.72;1028405;28;20277;-70
2020/12/21 01:14:58;;;;;;;28.25;23.50;;;;;;;0.19;100.00;96749.44;1028534;28;20630;-70
2020/12/21 01:15:29;;;;;;;26.42;22.08;;;;;;;0.26;100.00;96755.34;1032551;28;20157;-70
2020/12/21 01:16:03;;;;;;;26.27;21.38;;;;;;;0.26;100.00;96758.75;1020688;29;20028;-70
2020/12/21 01:16:34;;;;;;;23.77;20.65;;;;;;;0.22;100.00;96745.97;1024614;29;20074;-70
2020/12/21 01:17:05;;;;;;;29.10;21.80;;;;;;;0.27;100.00;96757.91;1028610;28;20677;-70
2020/12/21 01:17:35;;;;;;;25.48;21.08;;;;;;;0.28;100.00;96758.75;1028538;28;20121;-70
2020/12/21 01:18:06;;;;;;;23.63;19.90;;;;;;;0.29;100.00;96756.13;1032424;28;20034;-70
2020/12/21 01:18:37;;;;;;;25.08;22.35;;;;;;;0.30;100.00;96756.97;1024462;28;20027;-70
2020/12/21 01:19:09;;;;;;;27.25;21.90;;;;;;;0.28;100.00;96749.31;1032598;28;20033;-70
2020/12/21 01:19:39;;;;;;;25.70;21.23;;;;;;;0.28;100.00;96749.31;1024449;29;20166;-70
2020/12/21 01:20:12;;;;;;;26.05;21.88;;;;;;;0.36;100.00;96746.59;1024321;28;20313;-71
2020/12/21 01:20:43;;;;;;;24.00;20.27;;;;;;;0.31;100.00;96746.66;1020687;29;20028;-70
2020/12/21 01:21:24;;;;;;;23.83;20.65;;;;;;;0.38;100.00;96745.69;1028582;28;20266;-70
2020/12/21 01:21:57;;;;;;;22.60;19.45;;;;;;;0.44;100.00;96747.31;1028501;28;20027;-70
2020/12/21 01:22:27;;;;;;;23.40;20.20;;;;;;;0.48;100.00;96746.34;1032337;28;20360;-70
2020/12/21 01:22:58;;;;;;;22.88;19.85;;;;;;;0.49;100.00;96753.22;1028489;28;20462;-70
2020/12/21 01:23:29;;;;;;;24.25;20.63;;;;;;;0.42;100.00;96738.75;1028663;28;20027;-70
2020/12/21 01:24:00;;;;;;;25.10;21.10;;;;;;;0.49;100.00;96742.91;1028506;28;20563;-70
2020/12/21 01:24:31;;;;;;;26.73;21.65;;;;;;;0.46;100.00;96745.53;1028424;28;20321;-71
2020/12/21 01:25:01;;;;;;;24.35;20.90;;;;;;;0.50;100.00;96743.75;1032540;28;20451;-70
2020/12/21 01:25:32;;;;;;;24.30;20.63;;;;;;;0.51;100.00;96745.47;1028574;28;20027;-70
2020/12/21 01:26:03;;;;;;;24.80;21.13;;;;;;;0.52;100.00;96750.56;1028603;28;20050;-70
2020/12/21 01:26:34;;;;;;;22.60;19.75;;;;;;;0.53;100.00;96748.88;1032318;28;20038;-70
2020/12/21 01:27:05;;;;;;;27.83;22.48;;;;;;;0.45;100.00;96736.13;1020491;29;20365;-70
2020/12/21 01:27:36;;;;;;;24.10;21.20;;;;;;;0.54;100.00;96750.56;1024627;29;20100;-70
2020/12/21 01:28:06;;;;;;;24.38;20.65;;;;;;;0.51;100.00;96754.06;1024539;29;20027;-70
2020/12/21 01:28:37;;;;;;;22.88;20.27;;;;;;;0.50;100.00;96752.34;1020532;29;20047;-71
2020/12/21 01:29:08;;;;;;;26.75;22.35;;;;;;;0.44;100.00;96761.91;1024656;28;20571;-70
2020/12/21 01:29:39;;;;;;;25.92;20.02;;;;;;;0.34;100.00;96749.19;1028604;28;20029;-70
2020/12/21 01:30:10;;;;;;;25.10;20.70;;;;;;;0.47;100.00;96759.28;1028431;28;20109;-70
2020/12/21 01:30:40;;;;;;;25.25;20.83;;;;;;;0.53;100.00;96759.19;1024314;28;20495;-70
2020/12/21 01:31:11;;;;;;;24.42;20.73;;;;;;;0.49;100.00;96749.78;1024428;28;20027;-70
2020/12/21 01:31:43;;;;;;;27.85;22.48;;;;;;;0.55;100.00;96762.59;1020568;29;20035;-70
2020/12/21 01:32:14;;;;;;;24.63;20.83;;;;;;;0.44;100.00;96760.19;1028267;28;20062;-70
2020/12/21 01:32:44;;;;;;;24.13;19.10;;;;;;;0.39;100.00;96762.00;1020506;28;20453;-70
2020/12/21 01:33:15;;;;;;;21.65;18.35;;;;;;;0.39;100.00;96764.56;1020506;29;20031;-70
2020/12/21 01:33:46;;;;;;;25.40;21.98;;;;;;;0.37;100.00;96756.00;1024561;28;20081;-71
2020/12/21 01:34:18;;;;;;;25.70;22.90;;;;;;;0.34;100.00;96756.94;1020558;29;20024;-70
2020/12/21 01:34:49;;;;;;;31.50;25.52;;;;;;;0.37;100.00;96759.44;1016605;29;20613;-71
2020/12/21 01:35:19;;;;;;;25.75;22.30;;;;;;;0.42;100.00;96759.38;1016520;29;20276;-70
2020/12/21 01:35:50;;;;;;;25.88;21.17;;;;;;;0.48;100.00;96755.84;1020751;29;20034;-71
2020/12/21 01:36:21;;;;;;;26.00;22.10;;;;;;;0.47;100.00;96752.41;1020659;29;20027;-70
2020/12/21 01:36:52;;;;;;;31.73;25.52;;;;;;;0.45;100.00;96751.59;1024380;29;20031;-71
2020/12/21 01:37:23;;;;;;;23.88;20.80;;;;;;;0.42;100.00;96748.22;1024415;29;20353;-71
2020/12/21 01:37:54;;;;;;;25.02;21.70;;;;;;;0.37;100.00;96741.38;1028600;28;20117;-71
2020/12/21 01:38:24;;;;;;;24.40;21.48;;;;;;;0.47;100.00;96747.25;1020531;29;20099;-70
2020/12/21 01:38:55;;;;;;;25.83;22.13;;;;;;;0.52;100.00;96744.59;1028423;28;20525;-70
2020/12/21 01:39:26;;;;;;;28.08;21.70;;;;;;;0.47;100.00;96754.13;1020517;29;20122;-70
2020/12/21 01:39:57;;;;;;;25.83;21.75;;;;;;;0.42;100.00;96746.47;1024520;29;20554;-70
2020/12/21 01:40:28;;;;;;;25.23;21.60;;;;;;;0.55;100.00;96755.69;1020471;29;20166;-72
2020/12/21 01:40:58;;;;;;;27.65;23.23;;;;;;;0.51;100.00;96756.63;1016512;29;20059;-70
2020/12/21 01:41:29;;;;;;;27.73;22.63;;;;;;;0.45;100.00;96746.44;1028353;28;20118;-70
2020/12/21 01:42:00;;;;;;;25.33;20.88;;;;;;;0.53;100.00;96757.44;1024470;29;20082;-70
2020/12/21 01:42:31;;;;;;;22.73;19.83;;;;;;;0.50;100.00;96757.50;1028319;28;20467;-70
2020/12/21 01:43:01;;;;;;;25.85;21.48;;;;;;;0.42;100.00;96754.22;1028504;28;20236;-70
2020/12/21 01:43:32;;;;;;;27.00;22.48;;;;;;;0.45;100.00;96761.91;1020413;29;20020;-70
2020/12/21 01:44:03;;;;;;;25.33;22.52;;;;;;;0.51;100.00;96763.53;1032496;28;20014;-70
2020/12/21 01:44:34;;;;;;;25.60;21.17;;;;;;;0.48;100.00;96764.41;1016706;28;20439;-70
2020/12/21 01:45:06;;;;;;;24.13;20.88;;;;;;;0.46;100.00;96760.16;1028237;28;20023;-70
2020/12/21 01:45:37;;;;;;;25.83;21.73;;;;;;;0.46;100.00;96758.44;1024268;29;20019;-70
2020/12/21 01:46:10;;;;;;;27.88;22.60;;;;;;;0.57;100.00;96761.66;1032353;28;20332;-70
2020/12/21 01:46:41;;;;;;;25.27;21.05;;;;;;;0.56;100.00;96757.41;1024388;28;20019;-70
2020/12/21 01:47:12;;;;;;;29.10;23.55;;;;;;;0.58;100.00;96762.50;1020490;29;20251;-70
2020/12/21 01:47:42;;;;;;;32.63;24.80;;;;;;;0.53;100.00;96759.19;1028419;28;20015;-70
2020/12/21 01:48:13;;;;;;;29.77;24.55;;;;;;;0.56;100.00;96759.13;1028402;28;20026;-70
2020/12/21 01:48:44;;;;;;;31.55;24.33;;;;;;;0.62;100.00;96760.72;1032479;28;20026;-70
2020/12/21 01:49:16;;;;;;;32.22;24.67;;;;;;;0.57;100.00;96769.41;1020255;29;20055;-71
2020/12/21 01:49:47;;;;;;;29.70;24.77;;;;;;;0.52;100.00;96760.06;1020430;29;20087;-70
2020/12/21 01:50:18;;;;;;;31.00;25.30;;;;;;;0.52;100.00;96763.47;1028461;28;20305;-70
2020/12/21 01:50:49;;;;;;;32.88;24.92;;;;;;;0.50;100.00;96754.06;1024376;28;20258;-70
2020/12/21 01:51:23;;;;;;;33.55;26.02;;;;;;;0.54;100.00;96751.41;1028271;28;20023;-71
2020/12/21 01:51:53;;;;;;;25.88;21.55;;;;;;;0.57;100.00;96756.50;1024405;28;20334;-70
2020/12/21 01:52:24;;;;;;;28.33;22.73;;;;;;;0.60;100.00;96760.75;1028369;28;20255;-70
2020/12/21 01:52:55;;;;;;;27.90;22.33;;;;;;;0.58;100.00;96762.50;1020623;29;20067;-70
2020/12/21 01:53:25;;;;;;;28.08;22.50;;;;;;;0.55;100.00;96758.28;1040410;28;20073;-70
2020/12/21 01:53:56;;;;;;;29.63;23.75;;;;;;;0.55;100.00;96762.59;1033580;28;20027;-71
2020/12/21 01:54:27;;;;;;;38.60;28.08;;;;;;;0.38;100.00;96744.84;1028088;29;20027;-70
2020/12/21 01:54:58;;;;;;;37.92;27.50;;;;;;;0.47;100.00;96761.84;1034102;28;20047;-70
2020/12/21 01:55:29;;;;;;;39.42;27.35;;;;;;;0.44;100.00;96769.66;1024450;29;20438;-70
2020/12/21 01:56:03;;;;;;;42.65;29.98;;;;;;;0.35;100.00;96766.34;1028400;28;20027;-71
2020/12/21 01:56:34;;;;;;;37.05;27.55;;;;;;;0.42;100.00;96768.84;1028253;28;20270;-71
2020/12/21 01:57:05;;;;;;;38.60;28.30;;;;;;;0.33;100.00;96768.09;1032419;28;20749;-70
2020/12/21 01:57:39;;;;;;;35.67;26.20;;;;;;;0.33;100.00;96770.66;1024285;29;20365;-70
2020/12/21 01:58:09;;;;;;;44.00;31.02;;;;;;;0.41;100.00;96767.13;1028386;28;20170;-70
2020/12/21 01:58:40;;;;;;;41.25;29.83;;;;;;;0.43;100.00;96767.94;1020490;29;20759;-71
2020/12/21 01:59:11;;;;;;;41.90;27.95;;;;;;;0.42;100.00;96767.09;1024409;28;20021;-71
2020/12/21 01:59:42;;;;;;;39.90;28.02;;;;;;;0.42;100.00;96754.22;1024212;29;20015;-70
2020/12/21 02:00:13;;;;;;;36.38;28.67;;;;;;;0.42;100.00;96759.38;1024135;29;20654;-70
2020/12/21 02:00:44;;;;;;;36.65;28.27;;;;;;;0.43;100.00;96761.06;1020348;28;20040;-70
2020/12/21 02:01:16;;;;;;;34.28;26.45;;;;;;;0.43;100.00;96767.94;1016499;29;20032;-70
2020/12/21 02:01:46;;;;;;;28.55;23.83;;;;;;;0.44;100.00;96759.34;1024167;29;20043;-70
2020/12/21 02:02:17;;;;;;;35.95;28.20;;;;;;;0.35;100.00;96752.59;1019664;29;20268;-70
2020/12/21 02:02:48;;;;;;;34.97;27.38;;;;;;;0.24;100.00;96749.38;1024090;29;20403;-70
2020/12/21 02:03:19;;;;;;;38.22;29.17;;;;;;;0.31;100.00;96758.69;1020366;29;20287;-70
2020/12/21 02:03:50;;;;;;;38.90;29.67;;;;;;;0.30;100.00;96765.59;1016386;29;20122;-71
2020/12/21 02:04:21;;;;;;;36.88;29.05;;;;;;;0.30;100.00;96769.88;1024392;29;20027;-70
2020/12/21 02:04:52;;;;;;;29.33;24.83;;;;;;;0.35;100.00;96768.91;1024303;29;20038;-70
2020/12/21 02:05:23;;;;;;;26.75;21.08;;;;;;;0.38;100.00;96771.44;1024423;29;20115;-70
2020/12/21 02:05:54;;;;;;;28.10;22.90;;;;;;;0.41;100.00;96772.28;1028272;28;20308;-70
2020/12/21 02:06:25;;;;;;;23.67;20.98;;;;;;;0.46;100.00;96770.47;1020330;29;20500;-70
2020/12/21 02:06:57;;;;;;;23.98;20.75;;;;;;;0.49;100.00;96768.69;1020421;29;20335;-70
2020/12/21 02:07:28;;;;;;;26.33;21.38;;;;;;;0.54;100.00;96766.88;1028456;28;20328;-69
2020/12/21 02:07:59;;;;;;;26.08;21.08;;;;;;;0.60;100.00;96770.22;1028146;28;20259;-70
2020/12/21 02:08:31;;;;;;;23.23;20.73;;;;;;;0.61;100.00;96772.78;1028267;28;20270;-70
2020/12/21 02:09:03;;;;;;;25.40;21.60;;;;;;;0.63;100.00;96765.88;1024490;29;20098;-70
2020/12/21 02:09:34;;;;;;;25.27;21.05;;;;;;;0.66;100.00;96770.13;1020261;29;20294;-70
2020/12/21 02:10:05;;;;;;;23.98;19.95;;;;;;;0.69;100.00;96762.31;1020255;29;20298;-71
2020/12/21 02:10:36;;;;;;;27.05;21.73;;;;;;;0.66;100.00;96760.66;1024281;29;20274;-70
2020/12/21 02:11:07;;;;;;;25.38;21.17;;;;;;;0.66;100.00;96759.81;1024460;29;20697;-70
2020/12/21 02:11:40;;;;;;;25.92;22.13;;;;;;;0.65;100.00;96763.28;1024331;29;20270;-70
2020/12/21 02:12:11;;;;;;;27.77;22.25;;;;;;;0.60;100.00;96763.34;1028087;28;20443;-70
2020/12/21 02:12:42;;;;;;;29.52;24.52;;;;;;;0.61;100.00;96756.47;1016415;29;20264;-70
2020/12/21 02:13:12;;;;;;;28.15;23.60;;;;;;;0.56;100.00;96752.25;1024333;29;20322;-70
2020/12/21 02:13:43;;;;;;;32.30;23.75;;;;;;;0.58;100.00;96755.66;1028362;28;20436;-70
2020/12/21 02:14:14;;;;;;;28.02;23.40;;;;;;;0.60;100.00;96754.75;1032141;28;20098;-70
2020/12/21 02:14:45;;;;;;;31.33;24.58;;;;;;;0.56;100.00;96747.09;1020304;29;20326;-70
2020/12/21 02:15:16;;;;;;;30.70;24.58;;;;;;;0.58;100.00;96757.34;1024292;29;20023;-70
2020/12/21 02:15:47;;;;;;;28.65;24.15;;;;;;;0.57;100.00;96748.78;1024366;28;20046;-70
2020/12/21 02:16:18;;;;;;;28.63;24.45;;;;;;;0.56;100.00;96757.41;1024151;28;20403;-70
2020/12/21 02:16:49;;;;;;;29.10;24.33;;;;;;;0.58;100.00;96757.34;1024291;28;20031;-70
2020/12/21 02:17:19;;;;;;;30.00;24.88;;;;;;;0.57;100.00;96756.50;1028267;28;20121;-70
2020/12/21 02:17:52;;;;;;;29.30;24.83;;;;;;;0.55;100.00;96757.44;1028302;28;20278;-70
2020/12/21 02:18:24;;;;;;;30.15;24.90;;;;;;;0.55;100.00;96754.84;1028192;28;20405;-70
2020/12/21 02:18:55;;;;;;;28.40;23.55;;;;;;;0.53;100.00;96760.03;1028239;28;20289;-70
2020/12/21 02:19:25;;;;;;;27.52;24.08;;;;;;;0.51;100.00;96755.78;1028294;28;20294;-70
2020/12/21 02:19:57;;;;;;;31.30;24.10;;;;;;;0.50;100.00;96765.22;1023989;28;20130;-70
2020/12/21 02:20:28;;;;;;;29.50;23.58;;;;;;;0.52;100.00;96760.06;1024056;29;20027;-70
2020/12/21 02:20:59;;;;;;;31.52;23.52;;;;;;;0.51;100.00;96753.22;1024179;29;20263;-70
2020/12/21 02:21:33;;;;;;;29.30;23.17;;;;;;;0.63;100.00;96759.88;1028173;28;20769;-70
2020/12/21 02:22:04;;;;;;;31.38;24.75;;;;;;;0.64;100.00;96758.97;1016352;29;20016;-70
2020/12/21 02:22:34;;;;;;;27.85;22.27;;;;;;;0.62;100.00;96764.19;1024205;29;20858;-70
2020/12/21 02:23:05;;;;;;;25.60;22.33;;;;;;;0.66;100.00;96764.97;1028178;28;20054;-70
2020/12/21 02:23:36;;;;;;;25.17;20.42;;;;;;;0.70;100.00;96764.88;1020391;29;20500;-70
2020/12/21 02:24:07;;;;;;;22.48;20.08;;;;;;;0.68;100.00;96760.66;1024305;28;20027;-70
2020/12/21 02:24:39;;;;;;;28.58;24.10;;;;;;;0.66;100.00;96763.25;1024295;29;20364;-70